sensor_id;sensor_type;location;lat;lon;timestamp;pressure;altitude;pressure_sealevel;temperature;humidity
30347;BME280;19047;44.782;20.468;2022-09-01T00:01:50;100437.88;;;24.12;73.01
30347;BME280;19047;44.782;20.468;2022-09-01T00:05:09;100430.38;;;24.09;73.08
30347;BME280;19047;44.782;20.468;2022-09-01T00:08:39;100433.72;;;24.08;73.20
30347;BME280;19047;44.782;20.468;2022-09-01T00:11:57;100357.91;;;23.58;73.22
30347;BME280;19047;44.782;20.468;2022-09-01T00:15:27;100433.19;;;24.03;73.62
30347;BME280;19047;44.782;20.468;2022-09-01T00:18:49;100420.72;;;24.01;73.54
30347;BME280;19047;44.782;20.468;2022-09-01T00:22:20;100427.47;;;23.98;73.85
30347;BME280;19047;44.782;20.468;2022-09-01T00:25:37;100427.19;;;23.96;73.68
30347;BME280;19047;44.782;20.468;2022-09-01T00:29:06;100427.19;;;23.96;74.00
30347;BME280;19047;44.782;20.468;2022-09-01T00:32:23;100428.19;;;23.93;73.91
30347;BME280;19047;44.782;20.468;2022-09-01T00:35:52;100425.06;;;23.91;74.09
30347;BME280;19047;44.782;20.468;2022-09-01T00:39:09;100420.41;;;23.88;74.25
30347;BME280;19047;44.782;20.468;2022-09-01T00:42:41;100434.41;;;23.86;74.44
30347;BME280;19047;44.782;20.468;2022-09-01T00:45:59;100430.22;;;23.81;74.69
30347;BME280;19047;44.782;20.468;2022-09-01T00:49:32;100434.63;;;23.77;74.60
30347;BME280;19047;44.782;20.468;2022-09-01T00:52:51;100432.78;;;23.74;75.03
30347;BME280;19047;44.782;20.468;2022-09-01T00:56:22;100436.66;;;23.71;74.90
30347;BME280;19047;44.782;20.468;2022-09-01T00:59:45;100440.56;;;23.68;75.18
30347;BME280;19047;44.782;20.468;2022-09-01T01:03:17;100437.94;;;23.64;75.06
30347;BME280;19047;44.782;20.468;2022-09-01T01:06:36;100451.16;;;23.61;75.34
30347;BME280;19047;44.782;20.468;2022-09-01T01:10:07;100462.81;;;23.58;75.42
30347;BME280;19047;44.782;20.468;2022-09-01T01:13:25;100451.13;;;23.56;75.65
30347;BME280;19047;44.782;20.468;2022-09-01T01:16:59;100457.06;;;23.52;75.71
30347;BME280;19047;44.782;20.468;2022-09-01T01:20:16;100454.41;;;23.49;75.78
30347;BME280;19047;44.782;20.468;2022-09-01T01:27:24;100452.31;;;23.44;75.88
30347;BME280;19047;44.782;20.468;2022-09-01T01:31:02;100453.34;;;23.41;75.76
30347;BME280;19047;44.782;20.468;2022-09-01T01:34:22;100441.88;;;23.35;75.78
30347;BME280;19047;44.782;20.468;2022-09-01T01:37:52;100448.88;;;23.34;75.77
30347;BME280;19047;44.782;20.468;2022-09-01T01:41:09;100451.19;;;23.30;75.93
30347;BME280;19047;44.782;20.468;2022-09-01T01:44:42;100437.91;;;23.27;75.98
30347;BME280;19047;44.782;20.468;2022-09-01T01:47:59;100441.81;;;23.24;75.86
30347;BME280;19047;44.782;20.468;2022-09-01T01:51:29;100443.59;;;23.21;76.03
30347;BME280;19047;44.782;20.468;2022-09-01T01:54:50;100439.69;;;23.19;75.87
30347;BME280;19047;44.782;20.468;2022-09-01T01:58:21;100445.09;;;23.17;75.82
30347;BME280;19047;44.782;20.468;2022-09-01T02:01:41;100434.72;;;23.14;76.26
30347;BME280;19047;44.782;20.468;2022-09-01T02:05:13;100443.78;;;23.12;75.98
30347;BME280;19047;44.782;20.468;2022-09-01T02:08:36;100448.72;;;23.12;76.34
30347;BME280;19047;44.782;20.468;2022-09-01T02:12:07;100440.66;;;23.10;76.41
30347;BME280;19047;44.782;20.468;2022-09-01T02:15:24;100432.59;;;23.09;76.35
30347;BME280;19047;44.782;20.468;2022-09-01T02:18:56;100436.22;;;23.09;76.39
30347;BME280;19047;44.782;20.468;2022-09-01T02:22:26;100438.81;;;23.07;76.36
30347;BME280;19047;44.782;20.468;2022-09-01T02:25:44;100434.38;;;23.06;76.31
30347;BME280;19047;44.782;20.468;2022-09-01T02:29:19;100428.41;;;23.04;76.51
30347;BME280;19047;44.782;20.468;2022-09-01T02:32:37;100431.00;;;23.02;76.42
30347;BME280;19047;44.782;20.468;2022-09-01T02:36:09;100434.34;;;23.01;76.49
30347;BME280;19047;44.782;20.468;2022-09-01T02:39:30;100434.84;;;22.99;76.53
30347;BME280;19047;44.782;20.468;2022-09-01T02:43:01;100426.00;;;22.97;76.78
30347;BME280;19047;44.782;20.468;2022-09-01T02:46:18;100426.50;;;22.96;76.51
30347;BME280;19047;44.782;20.468;2022-09-01T02:49:51;100428.59;;;22.95;76.75
30347;BME280;19047;44.782;20.468;2022-09-01T02:53:08;100423.38;;;22.93;76.71
30347;BME280;19047;44.782;20.468;2022-09-01T02:56:39;100421.31;;;22.94;76.79
30347;BME280;19047;44.782;20.468;2022-09-01T02:59:57;100436.34;;;22.94;77.02
30347;BME280;19047;44.782;20.468;2022-09-01T03:03:28;100413.53;;;22.94;76.97
30347;BME280;19047;44.782;20.468;2022-09-01T03:06:46;100410.19;;;22.96;76.87
30347;BME280;19047;44.782;20.468;2022-09-01T03:10:16;100407.31;;;22.96;77.11
30347;BME280;19047;44.782;20.468;2022-09-01T03:13:37;100413.31;;;22.98;77.21
30347;BME280;19047;44.782;20.468;2022-09-01T03:17:09;100409.69;;;22.98;77.42
30347;BME280;19047;44.782;20.468;2022-09-01T03:20:27;100419.81;;;22.99;77.25
30347;BME280;19047;44.782;20.468;2022-09-01T03:23:58;100409.16;;;22.99;77.46
30347;BME280;19047;44.782;20.468;2022-09-01T03:27:18;100412.81;;;23.00;77.62
30347;BME280;19047;44.782;20.468;2022-09-01T03:30:49;100413.59;;;23.00;77.55
30347;BME280;19047;44.782;20.468;2022-09-01T03:34:06;100411.53;;;23.01;77.80
30347;BME280;19047;44.782;20.468;2022-09-01T03:37:39;100417.22;;;23.01;77.74
30347;BME280;19047;44.782;20.468;2022-09-01T03:41:00;100414.66;;;23.03;77.87
30347;BME280;19047;44.782;20.468;2022-09-01T03:44:30;100406.88;;;23.03;77.95
30347;BME280;19047;44.782;20.468;2022-09-01T03:47:54;100412.84;;;23.05;78.08
30347;BME280;19047;44.782;20.468;2022-09-01T03:51:28;100420.91;;;23.07;77.89
30347;BME280;19047;44.782;20.468;2022-09-01T03:54:46;100418.31;;;23.09;77.85
30347;BME280;19047;44.782;20.468;2022-09-01T03:58:18;100347.56;;;22.55;78.00
30347;BME280;19047;44.782;20.468;2022-09-01T04:01:34;100418.09;;;23.12;77.92
30347;BME280;19047;44.782;20.468;2022-09-01T04:05:06;100417.06;;;23.15;77.91
30347;BME280;19047;44.782;20.468;2022-09-01T04:08:24;100418.13;;;23.18;77.99
30347;BME280;19047;44.782;20.468;2022-09-01T04:11:57;100414.28;;;23.21;77.88
30347;BME280;19047;44.782;20.468;2022-09-01T04:15:15;100403.13;;;23.23;77.77
30347;BME280;19047;44.782;20.468;2022-09-01T04:18:44;100410.94;;;23.28;77.72
30347;BME280;19047;44.782;20.468;2022-09-01T04:22:04;100411.22;;;23.30;77.88
30347;BME280;19047;44.782;20.468;2022-09-01T04:25:36;100408.91;;;23.34;77.76
30347;BME280;19047;44.782;20.468;2022-09-01T04:28:55;100373.75;;;23.17;77.82
30347;BME280;19047;44.782;20.468;2022-09-01T04:32:24;100410.50;;;23.41;77.64
30347;BME280;19047;44.782;20.468;2022-09-01T04:35:47;100375.03;;;23.16;77.86
30347;BME280;19047;44.782;20.468;2022-09-01T04:39:19;100430.78;;;23.48;77.51
30347;BME280;19047;44.782;20.468;2022-09-01T04:42:35;100432.66;;;23.51;77.53
30347;BME280;19047;44.782;20.468;2022-09-01T04:46:06;100460.50;;;23.56;77.61
30347;BME280;19047;44.782;20.468;2022-09-01T04:49:24;100431.66;;;23.60;77.51
30347;BME280;19047;44.782;20.468;2022-09-01T04:52:57;100426.50;;;23.64;77.21
30347;BME280;19047;44.782;20.468;2022-09-01T04:56:26;100423.44;;;23.68;77.30
30347;BME280;19047;44.782;20.468;2022-09-01T05:00:07;100429.66;;;23.72;77.30
30347;BME280;19047;44.782;20.468;2022-09-01T05:03:38;100433.06;;;23.76;77.54
30347;BME280;19047;44.782;20.468;2022-09-01T05:07:29;100430.72;;;23.80;77.68
30347;BME280;19047;44.782;20.468;2022-09-01T05:10:46;100412.56;;;23.83;77.52
30347;BME280;19047;44.782;20.468;2022-09-01T05:14:28;100397.97;;;23.70;77.76
30347;BME280;19047;44.782;20.468;2022-09-01T05:17:45;100415.47;;;23.94;77.74
30347;BME280;19047;44.782;20.468;2022-09-01T05:21:19;100412.66;;;23.99;77.66
30347;BME280;19047;44.782;20.468;2022-09-01T05:24:37;100332.41;;;23.49;77.47
30347;BME280;19047;44.782;20.468;2022-09-01T05:28:12;100414.50;;;24.14;77.48
30347;BME280;19047;44.782;20.468;2022-09-01T05:31:29;100414.03;;;24.21;77.59
30347;BME280;19047;44.782;20.468;2022-09-01T05:35:00;100421.34;;;24.27;77.45
30347;BME280;19047;44.782;20.468;2022-09-01T05:38:18;100430.19;;;24.35;77.01
30347;BME280;19047;44.782;20.468;2022-09-01T05:41:48;100428.94;;;24.42;76.76
30347;BME280;19047;44.782;20.468;2022-09-01T05:45:07;100433.34;;;24.48;76.79
30347;BME280;19047;44.782;20.468;2022-09-01T05:48:38;100445.06;;;24.56;76.29
30347;BME280;19047;44.782;20.468;2022-09-01T05:51:56;100365.13;;;24.13;76.28
30347;BME280;19047;44.782;20.468;2022-09-01T05:55:27;100445.34;;;24.69;76.18
30347;BME280;19047;44.782;20.468;2022-09-01T05:58:53;100384.19;;;24.22;76.19
30347;BME280;19047;44.782;20.468;2022-09-01T06:02:25;100470.63;;;24.76;75.92
30347;BME280;19047;44.782;20.468;2022-09-01T06:05:41;100450.84;;;24.72;75.80
30347;BME280;19047;44.782;20.468;2022-09-01T06:09:16;100472.16;;;24.88;75.68
30347;BME280;19047;44.782;20.468;2022-09-01T06:12:42;100475.81;;;24.89;75.49
30347;BME280;19047;44.782;20.468;2022-09-01T06:16:13;100487.81;;;24.87;75.00
30347;BME280;19047;44.782;20.468;2022-09-01T06:19:31;100493.25;;;24.85;74.59
30347;BME280;19047;44.782;20.468;2022-09-01T06:23:02;100495.59;;;24.81;74.75
30347;BME280;19047;44.782;20.468;2022-09-01T06:26:23;100496.59;;;24.78;74.46
30347;BME280;19047;44.782;20.468;2022-09-01T06:29:54;100500.53;;;24.75;74.31
30347;BME280;19047;44.782;20.468;2022-09-01T06:33:25;100505.47;;;24.74;74.69
30347;BME280;19047;44.782;20.468;2022-09-01T06:36:56;100462.19;;;24.33;74.39
30347;BME280;19047;44.782;20.468;2022-09-01T06:40:15;100536.13;;;24.68;74.31
30347;BME280;19047;44.782;20.468;2022-09-01T06:43:47;100553.28;;;24.63;74.32
30347;BME280;19047;44.782;20.468;2022-09-01T06:47:04;100546.50;;;24.55;73.19
30347;BME280;19047;44.782;20.468;2022-09-01T06:50:36;100545.13;;;24.45;72.47
30347;BME280;19047;44.782;20.468;2022-09-01T06:54:08;100543.00;;;24.34;72.16
30347;BME280;19047;44.782;20.468;2022-09-01T06:57:30;100540.88;;;24.23;71.57
30347;BME280;19047;44.782;20.468;2022-09-01T07:01:04;100538.50;;;24.16;71.77
30347;BME280;19047;44.782;20.468;2022-09-01T07:04:22;100535.84;;;24.07;71.40
30347;BME280;19047;44.782;20.468;2022-09-01T07:07:54;100530.06;;;23.96;71.07
30347;BME280;19047;44.782;20.468;2022-09-01T07:11:46;100532.88;;;23.85;71.44
30347;BME280;19047;44.782;20.468;2022-09-01T07:15:17;100546.00;;;23.71;71.40
30347;BME280;19047;44.782;20.468;2022-09-01T07:18:35;100548.25;;;23.56;71.73
30347;BME280;19047;44.782;20.468;2022-09-01T07:22:05;100542.06;;;23.37;71.77
30347;BME280;19047;44.782;20.468;2022-09-01T07:25:30;100550.72;;;23.17;72.12
30347;BME280;19047;44.782;20.468;2022-09-01T07:29:12;100565.84;;;22.97;72.66
30347;BME280;19047;44.782;20.468;2022-09-01T07:32:29;100564.09;;;22.79;72.98
30347;BME280;19047;44.782;20.468;2022-09-01T07:36:00;100581.47;;;22.61;73.19
30347;BME280;19047;44.782;20.468;2022-09-01T07:39:20;100572.91;;;22.41;73.27
30347;BME280;19047;44.782;20.468;2022-09-01T07:43:16;100550.00;;;21.95;73.93
30347;BME280;19047;44.782;20.468;2022-09-01T07:46:57;100609.16;;;22.00;73.83
30347;BME280;19047;44.782;20.468;2022-09-01T07:50:32;100607.28;;;21.82;73.79
30347;BME280;19047;44.782;20.468;2022-09-01T07:53:51;100607.78;;;21.66;74.15
30347;BME280;19047;44.782;20.468;2022-09-01T07:57:25;100609.88;;;21.51;74.38
30347;BME280;19047;44.782;20.468;2022-09-01T08:00:43;100602.13;;;21.36;74.54
30347;BME280;19047;44.782;20.468;2022-09-01T08:04:13;100583.97;;;21.19;74.90
30347;BME280;19047;44.782;20.468;2022-09-01T08:07:29;100590.88;;;21.03;75.14
30347;BME280;19047;44.782;20.468;2022-09-01T08:10:59;100595.75;;;20.88;75.59
30347;BME280;19047;44.782;20.468;2022-09-01T08:14:16;100593.38;;;20.72;75.96
30347;BME280;19047;44.782;20.468;2022-09-01T08:17:47;100600.28;;;20.56;76.05
30347;BME280;19047;44.782;20.468;2022-09-01T08:21:07;100594.88;;;20.44;76.39
30347;BME280;19047;44.782;20.468;2022-09-01T08:25:11;100553.09;;;20.02;76.62
30347;BME280;19047;44.782;20.468;2022-09-01T08:28:28;100623.25;;;20.20;77.11
30347;BME280;19047;44.782;20.468;2022-09-01T08:31:58;100577.44;;;19.61;77.26
30347;BME280;19047;44.782;20.468;2022-09-01T08:35:17;100653.19;;;19.97;77.66
30347;BME280;19047;44.782;20.468;2022-09-01T08:38:48;100660.16;;;19.87;77.98
30347;BME280;19047;44.782;20.468;2022-09-01T08:45:54;100642.06;;;19.75;78.71
30347;BME280;19047;44.782;20.468;2022-09-01T08:49:19;100650.41;;;19.69;79.15
30347;BME280;19047;44.782;20.468;2022-09-01T08:53:02;100638.94;;;19.64;79.27
30347;BME280;19047;44.782;20.468;2022-09-01T08:56:24;100650.63;;;19.57;79.69
30347;BME280;19047;44.782;20.468;2022-09-01T09:00:00;100659.94;;;19.48;79.88
30347;BME280;19047;44.782;20.468;2022-09-01T09:03:19;100646.22;;;19.38;79.93
30347;BME280;19047;44.782;20.468;2022-09-01T09:07:09;100661.34;;;19.25;79.91
30347;BME280;19047;44.782;20.468;2022-09-01T09:10:31;100659.50;;;19.13;80.35
30347;BME280;19047;44.782;20.468;2022-09-01T09:14:18;100648.13;;;19.04;80.55
30347;BME280;19047;44.782;20.468;2022-09-01T09:17:39;100646.56;;;18.94;80.79
30347;BME280;19047;44.782;20.468;2022-09-01T09:21:15;100658.22;;;18.87;80.90
30347;BME280;19047;44.782;20.468;2022-09-01T09:28:13;100665.00;;;18.80;81.55
30347;BME280;19047;44.782;20.468;2022-09-01T09:31:37;100665.00;;;18.80;81.91
30347;BME280;19047;44.782;20.468;2022-09-01T09:35:21;100655.25;;;18.81;82.23
30347;BME280;19047;44.782;20.468;2022-09-01T09:38:38;100648.63;;;18.84;82.49
30347;BME280;19047;44.782;20.468;2022-09-01T09:42:09;100601.47;;;18.50;82.59
30347;BME280;19047;44.782;20.468;2022-09-01T09:45:28;100657.13;;;18.93;82.89
30347;BME280;19047;44.782;20.468;2022-09-01T09:49:05;100644.38;;;18.98;83.02
30347;BME280;19047;44.782;20.468;2022-09-01T09:52:23;100638.84;;;18.85;83.28
30347;BME280;19047;44.782;20.468;2022-09-01T09:56:02;100584.34;;;18.72;83.29
30347;BME280;19047;44.782;20.468;2022-09-01T10:02:51;100665.13;;;19.41;83.66
30347;BME280;19047;44.782;20.468;2022-09-01T10:06:15;100669.88;;;19.53;83.83
30347;BME280;19047;44.782;20.468;2022-09-01T10:10:00;100676.47;;;19.68;83.95
30347;BME280;19047;44.782;20.468;2022-09-01T10:13:20;100686.53;;;19.78;83.98
30347;BME280;19047;44.782;20.468;2022-09-01T10:17:01;100679.09;;;19.81;83.99
30347;BME280;19047;44.782;20.468;2022-09-01T10:20:22;100679.22;;;19.95;84.02
30347;BME280;19047;44.782;20.468;2022-09-01T10:23:52;100616.22;;;19.64;83.84
30347;BME280;19047;44.782;20.468;2022-09-01T10:27:15;100677.56;;;20.13;84.03
30347;BME280;19047;44.782;20.468;2022-09-01T10:30:51;100672.34;;;20.20;83.74
30347;BME280;19047;44.782;20.468;2022-09-01T10:34:13;100674.81;;;20.27;83.65
30347;BME280;19047;44.782;20.468;2022-09-01T10:37:46;100676.50;;;20.34;83.71
30347;BME280;19047;44.782;20.468;2022-09-01T10:41:03;100670.22;;;20.39;83.75
30347;BME280;19047;44.782;20.468;2022-09-01T10:44:35;100674.94;;;20.42;83.67
30347;BME280;19047;44.782;20.468;2022-09-01T10:47:54;100659.09;;;20.50;83.51
30347;BME280;19047;44.782;20.468;2022-09-01T10:58:18;100649.09;;;20.78;83.59
30347;BME280;19047;44.782;20.468;2022-09-01T11:05:13;100643.59;;;21.13;83.56
30347;BME280;19047;44.782;20.468;2022-09-01T11:12:17;100643.03;;;21.54;83.18
30347;BME280;19047;44.782;20.468;2022-09-01T11:15:40;100636.16;;;21.75;82.74
30347;BME280;19047;44.782;20.468;2022-09-01T11:19:53;100647.91;;;21.97;82.19
30347;BME280;19047;44.782;20.468;2022-09-01T11:23:28;100650.53;;;22.30;81.80
30347;BME280;19047;44.782;20.468;2022-09-01T11:26:59;100632.66;;;22.50;81.46
30347;BME280;19047;44.782;20.468;2022-09-01T11:34:15;100650.09;;;23.13;81.07
30347;BME280;19047;44.782;20.468;2022-09-01T11:37:33;100647.19;;;23.33;80.50
30347;BME280;19047;44.782;20.468;2022-09-01T11:41:04;100651.00;;;23.50;79.82
30347;BME280;19047;44.782;20.468;2022-09-01T11:47:55;100649.94;;;23.74;78.87
30347;BME280;19047;44.782;20.468;2022-09-01T11:51:13;100622.91;;;23.49;78.27
30347;BME280;19047;44.782;20.468;2022-09-01T11:54:44;100643.75;;;23.81;78.18
30347;BME280;19047;44.782;20.468;2022-09-01T11:58:04;100642.44;;;23.82;77.94
30347;BME280;19047;44.782;20.468;2022-09-01T12:01:38;100643.75;;;23.81;77.55
30347;BME280;19047;44.782;20.468;2022-09-01T12:04:55;100640.63;;;23.79;77.40
30347;BME280;19047;44.782;20.468;2022-09-01T12:08:27;100632.56;;;23.77;77.35
30347;BME280;19047;44.782;20.468;2022-09-01T12:11:55;100644.50;;;23.76;76.95
30347;BME280;19047;44.782;20.468;2022-09-01T12:15:26;100648.34;;;23.73;77.31
30347;BME280;19047;44.782;20.468;2022-09-01T12:18:45;100650.69;;;23.69;77.30
30347;BME280;19047;44.782;20.468;2022-09-01T12:22:17;100652.19;;;23.64;77.03
30347;BME280;19047;44.782;20.468;2022-09-01T12:25:35;100667.97;;;23.59;76.76
30347;BME280;19047;44.782;20.468;2022-09-01T12:29:07;100674.44;;;23.54;76.90
30347;BME280;19047;44.782;20.468;2022-09-01T12:32:24;100672.75;;;23.48;76.56
30347;BME280;19047;44.782;20.468;2022-09-01T12:40:06;100677.03;;;23.32;76.12
30347;BME280;19047;44.782;20.468;2022-09-01T12:43:38;100669.91;;;23.22;76.24
30347;BME280;19047;44.782;20.468;2022-09-01T12:47:59;100682.03;;;23.17;76.06
30347;BME280;19047;44.782;20.468;2022-09-01T12:51:17;100688.19;;;23.10;76.47
30347;BME280;19047;44.782;20.468;2022-09-01T12:54:50;100688.09;;;23.04;76.56
30347;BME280;19047;44.782;20.468;2022-09-01T12:58:08;100675.34;;;23.00;76.45
30347;BME280;19047;44.782;20.468;2022-09-01T13:01:39;100664.63;;;22.94;76.31
30347;BME280;19047;44.782;20.468;2022-09-01T13:05:16;100671.38;;;22.91;76.43
30347;BME280;19047;44.782;20.468;2022-09-01T13:08:46;100662.53;;;22.89;76.34
30347;BME280;19047;44.782;20.468;2022-09-01T13:12:19;100643.97;;;22.79;76.49
30347;BME280;19047;44.782;20.468;2022-09-01T13:15:53;100650.19;;;22.78;76.51
30347;BME280;19047;44.782;20.468;2022-09-01T13:19:11;100616.97;;;22.40;76.43
30347;BME280;19047;44.782;20.468;2022-09-01T13:26:09;100659.16;;;22.91;75.80
30347;BME280;19047;44.782;20.468;2022-09-01T13:29:40;100648.53;;;22.91;75.66
30347;BME280;19047;44.782;20.468;2022-09-01T13:32:57;100653.50;;;22.97;75.75
30347;BME280;19047;44.782;20.468;2022-09-01T13:36:28;100651.16;;;22.95;75.28
30347;BME280;19047;44.782;20.468;2022-09-01T13:39:45;100659.06;;;23.06;75.70
30347;BME280;19047;44.782;20.468;2022-09-01T13:43:19;100656.00;;;23.09;74.88
30347;BME280;19047;44.782;20.468;2022-09-01T13:46:36;100645.53;;;23.01;75.25
30347;BME280;19047;44.782;20.468;2022-09-01T13:50:11;100662.53;;;23.15;75.09
30347;BME280;19047;44.782;20.468;2022-09-01T13:53:29;100680.47;;;23.16;75.45
30347;BME280;19047;44.782;20.468;2022-09-01T13:57:00;100669.31;;;23.18;75.29
30347;BME280;19047;44.782;20.468;2022-09-01T14:00:23;100669.63;;;23.20;75.62
30347;BME280;19047;44.782;20.468;2022-09-01T14:03:54;100676.56;;;23.13;75.05
30347;BME280;19047;44.782;20.468;2022-09-01T14:07:13;100674.75;;;23.16;75.72
30347;BME280;19047;44.782;20.468;2022-09-01T14:10:46;100652.53;;;23.00;74.75
30347;BME280;19047;44.782;20.468;2022-09-01T14:14:04;100678.34;;;23.11;74.83
30347;BME280;19047;44.782;20.468;2022-09-01T14:17:37;100656.06;;;22.94;74.43
30347;BME280;19047;44.782;20.468;2022-09-01T14:20:55;100674.63;;;23.05;75.07
30347;BME280;19047;44.782;20.468;2022-09-01T14:24:26;100696.59;;;22.99;74.25
30347;BME280;19047;44.782;20.468;2022-09-01T14:27:44;100670.59;;;22.91;74.96
30347;BME280;19047;44.782;20.468;2022-09-01T14:31:16;100681.13;;;22.85;74.48
30347;BME280;19047;44.782;20.468;2022-09-01T14:34:34;100679.50;;;22.78;75.01
30347;BME280;19047;44.782;20.468;2022-09-01T14:38:06;100683.34;;;22.75;75.25
30347;BME280;19047;44.782;20.468;2022-09-01T14:41:27;100692.31;;;22.68;75.75
30347;BME280;19047;44.782;20.468;2022-09-01T14:45:03;100694.28;;;22.62;75.40
30347;BME280;19047;44.782;20.468;2022-09-01T14:48:20;100690.56;;;22.56;75.64
30347;BME280;19047;44.782;20.468;2022-09-01T14:51:52;100684.72;;;22.45;75.22
30347;BME280;19047;44.782;20.468;2022-09-01T14:55:11;100685.19;;;22.43;75.68
30347;BME280;19047;44.782;20.468;2022-09-01T14:58:43;100675.78;;;22.37;75.39
30347;BME280;19047;44.782;20.468;2022-09-01T15:02:03;100681.97;;;22.36;75.58
30347;BME280;19047;44.782;20.468;2022-09-01T15:05:35;100670.19;;;22.28;75.40
30347;BME280;19047;44.782;20.468;2022-09-01T15:08:52;100669.03;;;22.20;76.17
30347;BME280;19047;44.782;20.468;2022-09-01T15:12:24;100673.25;;;22.25;75.96
30347;BME280;19047;44.782;20.468;2022-09-01T15:15:44;100680.25;;;22.24;75.90
30347;BME280;19047;44.782;20.468;2022-09-01T15:19:16;100682.22;;;22.17;75.75
30347;BME280;19047;44.782;20.468;2022-09-01T15:22:33;100686.38;;;22.16;75.84
30347;BME280;19047;44.782;20.468;2022-09-01T15:26:04;100686.06;;;22.14;75.56
30347;BME280;19047;44.782;20.468;2022-09-01T15:29:21;100692.44;;;22.09;75.76
30347;BME280;19047;44.782;20.468;2022-09-01T15:32:57;100700.50;;;22.11;75.63
30347;BME280;19047;44.782;20.468;2022-09-01T15:36:21;100698.06;;;22.04;75.73
30347;BME280;19047;44.782;20.468;2022-09-01T15:39:52;100707.59;;;22.01;75.89
30347;BME280;19047;44.782;20.468;2022-09-01T15:43:09;100706.97;;;21.97;76.31
30347;BME280;19047;44.782;20.468;2022-09-01T15:46:41;100679.50;;;21.79;75.74
30347;BME280;19047;44.782;20.468;2022-09-01T15:50:06;100729.69;;;21.91;75.93
30347;BME280;19047;44.782;20.468;2022-09-01T15:53:38;100708.34;;;21.86;75.94
30347;BME280;19047;44.782;20.468;2022-09-01T15:56:55;100709.06;;;21.81;75.86
30347;BME280;19047;44.782;20.468;2022-09-01T16:00:28;100708.94;;;21.76;75.33
30347;BME280;19047;44.782;20.468;2022-09-01T16:03:45;100716.13;;;21.71;76.03
30347;BME280;19047;44.782;20.468;2022-09-01T16:07:18;100710.81;;;21.64;75.79
30347;BME280;19047;44.782;20.468;2022-09-01T16:10:37;100717.50;;;21.61;75.97
30347;BME280;19047;44.782;20.468;2022-09-01T16:14:08;100719.75;;;21.57;75.99
30347;BME280;19047;44.782;20.468;2022-09-01T16:17:52;100709.81;;;21.53;75.71
30347;BME280;19047;44.782;20.468;2022-09-01T16:25:28;100716.88;;;21.42;76.21
30347;BME280;19047;44.782;20.468;2022-09-01T16:28:59;100716.28;;;21.38;76.11
30347;BME280;19047;44.782;20.468;2022-09-01T16:32:19;100712.06;;;21.34;76.07
30347;BME280;19047;44.782;20.468;2022-09-01T16:42:47;100724.00;;;21.23;75.91
30347;BME280;19047;44.782;20.468;2022-09-01T16:46:10;100731.97;;;21.19;76.02
30347;BME280;19047;44.782;20.468;2022-09-01T17:00:20;100736.47;;;21.02;76.37
30347;BME280;19047;44.782;20.468;2022-09-01T17:11:05;100738.75;;;20.89;76.98
30347;BME280;19047;44.782;20.468;2022-09-01T17:14:36;100731.22;;;20.86;77.14
30347;BME280;19047;44.782;20.468;2022-09-01T17:18:11;100735.50;;;20.81;77.22
30347;BME280;19047;44.782;20.468;2022-09-01T17:21:37;100730.78;;;20.78;77.32
30347;BME280;19047;44.782;20.468;2022-09-01T17:25:09;100730.97;;;20.74;77.20
30347;BME280;19047;44.782;20.468;2022-09-01T17:39:20;100749.06;;;20.62;77.79
30347;BME280;19047;44.782;20.468;2022-09-01T17:42:58;100746.06;;;20.57;78.06
30347;BME280;19047;44.782;20.468;2022-09-01T17:49:55;100756.84;;;20.53;78.02
30347;BME280;19047;44.782;20.468;2022-09-01T18:11:42;100766.19;;;20.44;78.24
30347;BME280;19047;44.782;20.468;2022-09-01T18:18:43;100765.09;;;20.42;78.31
30347;BME280;19047;44.782;20.468;2022-09-01T18:22:14;100764.00;;;20.39;78.33
30347;BME280;19047;44.782;20.468;2022-09-01T18:29:05;100791.47;;;20.42;78.44
30347;BME280;19047;44.782;20.468;2022-09-01T18:36:28;100785.31;;;20.44;78.22
30347;BME280;19047;44.782;20.468;2022-09-01T18:40:13;100777.44;;;20.38;78.19
30347;BME280;19047;44.782;20.468;2022-09-01T18:43:36;100786.38;;;20.46;78.42
30347;BME280;19047;44.782;20.468;2022-09-01T18:47:19;100803.44;;;20.46;78.33
30347;BME280;19047;44.782;20.468;2022-09-01T18:58:33;100792.38;;;20.48;78.52
30347;BME280;19047;44.782;20.468;2022-09-01T19:10:14;100778.47;;;20.50;78.17
30347;BME280;19047;44.782;20.468;2022-09-01T19:21:07;100784.47;;;20.52;78.26
30347;BME280;19047;44.782;20.468;2022-09-01T19:24:43;100792.03;;;20.55;78.34
30347;BME280;19047;44.782;20.468;2022-09-01T19:31:56;100784.13;;;20.59;78.25
30347;BME280;19047;44.782;20.468;2022-09-01T19:35:18;100784.44;;;20.61;78.50
30347;BME280;19047;44.782;20.468;2022-09-01T19:38:49;100784.13;;;20.59;78.04
30347;BME280;19047;44.782;20.468;2022-09-01T19:42:36;100781.13;;;20.63;77.63
30347;BME280;19047;44.782;20.468;2022-09-01T19:50:03;100777.34;;;20.57;77.88
30347;BME280;19047;44.782;20.468;2022-09-01T19:57:35;100772.91;;;20.56;77.76
30347;BME280;19047;44.782;20.468;2022-09-01T20:01:11;100764.44;;;20.47;78.22
30347;BME280;19047;44.782;20.468;2022-09-01T20:04:41;100789.66;;;20.63;78.21
30347;BME280;19047;44.782;20.468;2022-09-01T20:08:38;100747.28;;;20.32;78.11
30347;BME280;19047;44.782;20.468;2022-09-01T20:23:18;100800.38;;;20.59;78.55
30347;BME280;19047;44.782;20.468;2022-09-01T20:26:57;100796.44;;;20.56;78.38
30347;BME280;19047;44.782;20.468;2022-09-01T20:30:40;100801.53;;;20.52;78.51
30347;BME280;19047;44.782;20.468;2022-09-01T20:34:38;100796.16;;;20.54;78.50